Ana Sayfa
METAR-TAF:

METAR-TAF

Havaalanları :

Tongatapu, Tonga

Enlem: 21-14S, Boylam: 175-09W, yükseklik: 38 m

Güncel hava durumu gözlemi

Rapor saat 22:00 UTC de 17 dakika önce yapıldı.
Rüzgar doğudan 5 kt
Sıcaklık 24°C
Nem 69%
Basınç 1017 hPa
Görüş mesafesi 10 km veya daha fazla
1000 ft yükseklikte az bulutlu
1700 ft yükseklikte parçalı bulutlu, Yükselen kümülüs.

METAR: NFTF 222200Z 08005KT 9999 FEW010 SCT017TCU 24/18 Q1017

Saat: 11:17 (22:17 UTC)

Tahmin

Rapor saat 17:03 UTC de 5 saat ve 14 dakika önce yapıldı.
Ayın 22'si saat 18 UTC'den ayın 23'si saat 18 UTC'ye kadar geçerli Tahmin
Rüzgar doğudan 5 kt
Görüş mesafesi 10 km veya daha fazla
1800 ft yükseklikte parçalı bulutlu

TAF: NFTF 221703Z 2218/2318 08005KT 9999 SCT018

4.000'den fazla havaalanı için hava durumu gözlemleri ve tahminleri (METAR ve TAF raporları).

Kullanılabilir istasyonlar harita üzerinde sarı ve kırmızı noktalarla gösterilir.

İstasyonun adını görmek için fareyi noktanın üzerinde gezdirin.

Sonrasında hava gözlem ve tahminlerini görmek için tıklayın.

Haritayı değiştirmek için: yaklaştırmak için siyah artı işaretli yeşil düğmeye ve uzaklaştırmak için de eksi işaretli düğmeye hızla tıklayın; bitişik haritalar için yeşil okları kullanın.


METAR-TAF: